createdAt,value
2023-04-03T00:02:26.918Z,4.84
2023-04-03T00:04:58.631Z,4.78
2023-04-03T00:07:30.372Z,4.78
2023-04-03T00:10:03.176Z,4.81
2023-04-03T00:12:34.996Z,4.78
2023-04-03T00:15:08.291Z,4.80
2023-04-03T00:17:40.410Z,4.73
2023-04-03T00:20:12.465Z,4.83
2023-04-03T00:22:44.196Z,4.67
2023-04-03T00:25:16.181Z,4.65
2023-04-03T00:27:48.028Z,4.66
2023-04-03T00:30:23.638Z,4.63
2023-04-03T00:32:55.932Z,4.67
2023-04-03T00:35:28.290Z,4.69
2023-04-03T00:38:03.198Z,4.68
2023-04-03T00:40:43.418Z,4.65
2023-04-03T00:43:27.455Z,4.65
2023-04-03T00:46:00.871Z,4.64
2023-04-03T00:48:36.819Z,4.63
2023-04-03T00:51:12.246Z,4.58
2023-04-03T00:53:58.930Z,4.59
2023-04-03T00:56:32.119Z,4.61
2023-04-03T00:59:11.357Z,4.60
2023-04-03T01:01:43.929Z,4.57
2023-04-03T01:04:37.897Z,4.57
2023-04-03T01:07:16.330Z,4.55
2023-04-03T01:09:49.748Z,4.53
2023-04-03T01:12:27.824Z,4.56
2023-04-03T01:15:07.340Z,4.58
2023-04-03T01:17:47.161Z,4.58
2023-04-03T01:20:36.234Z,4.56
2023-04-03T01:23:28.120Z,4.46
2023-04-03T01:26:00.148Z,4.37
2023-04-03T01:28:34.836Z,4.34
2023-04-03T01:31:06.523Z,4.31
2023-04-03T01:33:39.922Z,4.30
2023-04-03T01:36:25.513Z,4.28
2023-04-03T01:39:00.216Z,4.30
2023-04-03T01:41:32.446Z,4.25
2023-04-03T01:44:13.694Z,4.08
2023-04-03T01:46:45.742Z,4.05
2023-04-03T01:49:17.519Z,3.98
2023-04-03T01:51:49.773Z,3.87
2023-04-03T01:54:21.634Z,3.83
2023-04-03T01:56:53.451Z,3.74
2023-04-03T01:59:26.519Z,3.71
2023-04-03T02:01:58.492Z,3.70
2023-04-03T02:04:30.364Z,3.64
2023-04-03T02:07:02.138Z,3.65
2023-04-03T02:09:34.176Z,3.57
2023-04-03T02:12:06.077Z,3.54
2023-04-03T02:14:38.356Z,3.48
2023-04-03T02:17:10.021Z,3.43
2023-04-03T02:19:41.948Z,3.40
2023-04-03T02:22:13.665Z,3.33
2023-04-03T02:24:45.697Z,3.24
2023-04-03T02:27:17.438Z,3.18
2023-04-03T02:29:49.259Z,3.16
2023-04-03T02:32:21.079Z,3.12
2023-04-03T02:34:53.159Z,3.10
2023-04-03T02:37:24.950Z,2.93
2023-04-03T02:39:59.062Z,2.84
2023-04-03T02:42:33.335Z,2.79
2023-04-03T02:45:06.132Z,2.76
2023-04-03T02:47:38.305Z,2.67
2023-04-03T02:50:10.372Z,2.62
2023-04-03T02:52:42.164Z,2.54
2023-04-03T02:55:16.481Z,2.46
2023-04-03T02:57:49.595Z,2.34
2023-04-03T03:00:21.576Z,2.22
2023-04-03T03:02:53.279Z,2.17
2023-04-03T03:05:25.084Z,2.10
2023-04-03T03:07:56.891Z,2.00
2023-04-03T03:10:28.723Z,1.99
2023-04-03T03:13:00.521Z,1.98
2023-04-03T03:15:32.244Z,1.96
2023-04-03T03:18:04.134Z,1.87
2023-04-03T03:20:36.140Z,1.85
2023-04-03T03:23:08.311Z,1.76
2023-04-03T03:25:42.960Z,1.70
2023-04-03T03:28:14.621Z,1.65
2023-04-03T03:30:46.443Z,1.57
2023-04-03T03:33:19.889Z,1.60
2023-04-03T03:35:52.804Z,1.55
2023-04-03T03:38:24.932Z,1.46
2023-04-03T03:40:56.695Z,1.41
2023-04-03T03:43:29.734Z,1.37
2023-04-03T03:46:01.552Z,1.31
2023-04-03T03:48:33.595Z,1.20
2023-04-03T03:51:05.510Z,1.18
2023-04-03T03:53:41.192Z,1.18
2023-04-03T03:56:18.022Z,1.20
2023-04-03T03:58:51.079Z,1.21
2023-04-03T04:01:24.151Z,1.21
2023-04-03T04:03:57.055Z,1.16
2023-04-03T04:06:32.837Z,1.10
2023-04-03T04:09:12.815Z,1.05
2023-04-03T04:11:44.629Z,1.02
2023-04-03T04:14:17.677Z,1.04
2023-04-03T04:16:49.932Z,1.02
2023-04-03T04:19:26.773Z,1.04
2023-04-03T04:21:58.695Z,1.04
2023-04-03T04:24:30.584Z,0.97
2023-04-03T04:27:02.839Z,0.95
2023-04-03T04:29:38.225Z,0.91
2023-04-03T04:32:15.015Z,0.91
2023-04-03T04:34:46.694Z,0.90
2023-04-03T04:37:18.551Z,0.90
2023-04-03T04:39:52.561Z,0.91
2023-04-03T04:42:24.836Z,0.97
2023-04-03T04:44:56.682Z,0.97
2023-04-03T04:47:30.024Z,0.93
2023-04-03T04:50:01.883Z,0.96
2023-04-03T04:52:34.321Z,0.92
2023-04-03T04:55:06.551Z,0.85
2023-04-03T04:57:40.345Z,0.81
2023-04-03T05:00:14.132Z,0.80
2023-04-03T05:02:45.996Z,0.84
2023-04-03T05:05:20.393Z,0.87
2023-04-03T05:07:52.431Z,0.88
2023-04-03T05:10:24.419Z,0.99
2023-04-03T05:12:56.185Z,2.04
2023-04-03T05:15:28.141Z,3.34
2023-04-03T05:18:00.752Z,4.25
2023-04-03T05:20:34.200Z,4.37
2023-04-03T05:23:06.038Z,4.12
2023-04-03T05:25:40.443Z,3.64
2023-04-03T05:28:14.193Z,3.43
2023-04-03T05:30:46.206Z,3.56
2023-04-03T05:33:18.091Z,3.57
2023-04-03T05:35:55.534Z,3.67
2023-04-03T05:38:33.200Z,3.66
2023-04-03T05:41:06.199Z,3.64
2023-04-03T05:43:40.065Z,3.69
2023-04-03T05:46:18.071Z,4.03
2023-04-03T05:48:52.682Z,4.17
2023-04-03T05:51:31.099Z,4.10
2023-04-03T05:54:14.727Z,4.38
2023-04-03T05:56:47.051Z,4.85
2023-04-03T05:59:20.378Z,4.88
2023-04-03T06:01:53.875Z,4.93
2023-04-03T06:04:27.364Z,4.67
2023-04-03T06:07:02.301Z,4.49
2023-04-03T06:09:34.578Z,4.66
2023-04-03T06:12:06.777Z,5.01
2023-04-03T06:14:38.558Z,5.04
2023-04-03T06:17:10.714Z,5.52
2023-04-03T06:19:42.630Z,5.65
2023-04-03T06:22:15.179Z,5.52
2023-04-03T06:24:47.596Z,5.63
2023-04-03T06:27:19.413Z,5.92
2023-04-03T06:29:51.457Z,5.91
2023-04-03T06:32:23.204Z,5.78
2023-04-03T06:34:56.560Z,5.64
2023-04-03T06:37:29.872Z,5.74
2023-04-03T06:40:02.447Z,6.24
2023-04-03T06:42:34.174Z,6.58
2023-04-03T06:45:16.529Z,6.54
2023-04-03T06:47:48.358Z,6.78
2023-04-03T06:50:20.816Z,7.15
2023-04-03T06:52:52.638Z,7.08
2023-04-03T06:55:24.483Z,7.58
2023-04-03T06:57:56.304Z,8.07
2023-04-03T07:00:28.734Z,8.49
2023-04-03T07:03:03.924Z,8.49
2023-04-03T07:05:37.049Z,8.72
2023-04-03T07:08:09.047Z,8.54
2023-04-03T07:10:41.003Z,8.36
2023-04-03T07:13:12.857Z,8.48
2023-04-03T07:15:45.105Z,8.59
2023-04-03T07:18:17.959Z,8.74
2023-04-03T07:20:49.684Z,9.05
2023-04-03T07:23:21.459Z,8.82
2023-04-03T07:25:54.024Z,8.61
2023-04-03T07:28:26.394Z,8.30
2023-04-03T07:31:04.900Z,8.22
2023-04-03T07:33:37.058Z,8.34
2023-04-03T07:36:09.446Z,8.62
2023-04-03T07:38:41.588Z,8.74
2023-04-03T07:41:16.524Z,8.87
2023-04-03T07:43:48.253Z,9.11
2023-04-03T07:46:20.163Z,8.97
2023-04-03T07:48:52.012Z,9.10
2023-04-03T07:51:25.153Z,9.14
2023-04-03T07:53:58.121Z,9.41
2023-04-03T07:56:30.056Z,9.20
2023-04-03T07:59:01.825Z,8.59
2023-04-03T08:01:34.783Z,8.31
2023-04-03T08:04:07.929Z,7.81
2023-04-03T08:06:46.350Z,8.13
2023-04-03T08:09:19.680Z,8.73
2023-04-03T08:11:54.207Z,8.73
2023-04-03T08:14:27.283Z,7.90
2023-04-03T08:16:59.451Z,7.41
2023-04-03T08:19:32.431Z,7.01
2023-04-03T08:22:04.973Z,6.77
2023-04-03T08:24:39.104Z,6.47
2023-04-03T08:27:11.092Z,7.00
2023-04-03T08:29:42.880Z,7.40
2023-04-03T08:32:14.709Z,7.55
2023-04-03T08:34:47.196Z,7.07
2023-04-03T08:37:19.018Z,7.21
2023-04-03T08:39:51.141Z,7.31
2023-04-03T08:42:50.231Z,7.72
2023-04-03T08:45:51.246Z,7.43
2023-04-03T08:48:28.868Z,7.38
2023-04-03T08:51:12.231Z,7.33
2023-04-03T08:53:57.416Z,7.06
2023-04-03T08:56:31.105Z,6.83
2023-04-03T08:59:14.175Z,6.65
2023-04-03T09:01:47.051Z,6.75
2023-04-03T09:04:20.188Z,6.47
2023-04-03T09:06:59.861Z,6.00
2023-04-03T09:09:42.855Z,5.69
2023-04-03T09:12:33.091Z,5.85
2023-04-03T09:15:24.799Z,5.56
2023-04-03T09:18:06.213Z,5.54
2023-04-03T09:20:59.648Z,5.44
2023-04-03T09:23:34.294Z,5.21
2023-04-03T09:26:16.370Z,5.32
2023-04-03T09:28:50.743Z,5.12
2023-04-03T09:31:26.054Z,5.09
2023-04-03T09:34:00.539Z,5.58
2023-04-03T09:36:48.039Z,5.42
2023-04-03T09:39:22.876Z,5.97
2023-04-03T09:42:04.717Z,6.21
2023-04-03T09:44:39.220Z,6.31
2023-04-03T09:47:39.177Z,6.37
2023-04-03T09:50:16.978Z,6.41
2023-04-03T09:52:52.923Z,6.37
2023-04-03T09:55:29.611Z,6.57
2023-04-03T09:58:04.325Z,6.32
2023-04-03T10:00:40.826Z,6.44
2023-04-03T10:03:35.763Z,6.34
2023-04-03T10:06:25.354Z,6.65
2023-04-03T10:09:05.520Z,7.32
2023-04-03T10:11:37.572Z,8.10
2023-04-03T10:14:18.418Z,7.80
2023-04-03T10:17:02.313Z,7.19
2023-04-03T10:19:44.621Z,6.98
2023-04-03T10:22:41.662Z,6.56
2023-04-03T10:25:45.993Z,6.58
2023-04-03T10:28:36.918Z,6.81
2023-04-03T10:31:23.128Z,7.46
2023-04-03T10:33:57.477Z,7.62
2023-04-03T10:36:38.486Z,8.10
2023-04-03T10:39:32.898Z,8.39
2023-04-03T10:42:17.658Z,8.05
2023-04-03T10:45:22.419Z,7.96
2023-04-03T10:47:56.819Z,7.65
2023-04-03T10:50:46.923Z,7.45
2023-04-03T10:53:51.350Z,7.48
2023-04-03T10:57:04.593Z,7.39
2023-04-03T10:59:52.528Z,7.17
2023-04-03T11:02:27.914Z,6.79
2023-04-03T11:05:14.952Z,6.72
2023-04-03T11:07:52.472Z,6.75
2023-04-03T11:10:36.628Z,6.97
2023-04-03T11:13:34.437Z,6.69
2023-04-03T11:16:07.499Z,6.65
2023-04-03T11:19:04.625Z,6.91
2023-04-03T11:21:44.272Z,6.74
2023-04-03T11:24:30.852Z,6.62
2023-04-03T11:27:06.330Z,6.48
2023-04-03T11:29:41.945Z,6.45
2023-04-03T11:32:39.801Z,6.48
2023-04-03T11:35:13.121Z,6.37
2023-04-03T11:37:51.981Z,6.29
2023-04-03T11:40:29.126Z,6.12
2023-04-03T11:43:00.772Z,6.05
2023-04-03T11:45:57.222Z,6.13
2023-04-03T11:48:33.070Z,6.09
2023-04-03T11:51:13.610Z,6.24
2023-04-03T11:53:45.844Z,6.46
2023-04-03T11:56:31.634Z,6.43
2023-04-03T11:59:06.087Z,6.62
2023-04-03T12:01:50.027Z,6.40
2023-04-03T12:04:25.111Z,6.38
2023-04-03T12:07:19.964Z,6.38
2023-04-03T12:09:51.711Z,6.23
2023-04-03T12:12:36.972Z,6.29
2023-04-03T12:15:42.275Z,6.73
2023-04-03T12:18:33.515Z,7.02
2023-04-03T12:21:05.396Z,7.09
2023-04-03T12:24:08.510Z,6.76
2023-04-03T12:27:01.643Z,6.76
2023-04-03T12:29:33.434Z,6.58
2023-04-03T12:32:14.281Z,6.49
2023-04-03T12:35:04.785Z,6.78
2023-04-03T12:38:04.879Z,7.01
2023-04-03T12:40:42.635Z,6.82
2023-04-03T12:43:39.078Z,6.79
2023-04-03T12:46:17.559Z,6.58
2023-04-03T12:48:56.018Z,6.38
2023-04-03T12:51:36.683Z,6.44
2023-04-03T12:54:17.737Z,6.58
2023-04-03T12:56:49.622Z,6.51
2023-04-03T12:59:27.284Z,6.41
2023-04-03T13:02:01.698Z,6.37
2023-04-03T13:04:33.524Z,6.35
2023-04-03T13:07:05.578Z,6.53
2023-04-03T13:09:37.473Z,6.56
2023-04-03T13:12:16.665Z,6.66
2023-04-03T13:15:00.207Z,6.60
2023-04-03T13:17:33.136Z,6.53
2023-04-03T13:20:28.064Z,6.45
2023-04-03T13:23:05.489Z,6.32
2023-04-03T13:25:43.263Z,6.36
2023-04-03T13:28:23.118Z,6.25
2023-04-03T13:31:21.414Z,6.21
2023-04-03T13:34:07.700Z,6.37
2023-04-03T13:37:04.223Z,6.32
2023-04-03T13:42:30.761Z,6.18
2023-04-03T13:45:21.124Z,6.16
2023-04-03T13:47:56.412Z,6.22
2023-04-03T13:50:30.020Z,6.16
2023-04-03T13:53:14.748Z,6.15
2023-04-03T13:55:59.913Z,6.02
2023-04-03T13:58:33.328Z,5.88
2023-04-03T14:01:10.897Z,5.79
2023-04-03T14:03:52.718Z,5.89
2023-04-03T14:06:24.830Z,5.95
2023-04-03T14:08:56.650Z,6.03
2023-04-03T14:11:31.221Z,6.08
2023-04-03T14:14:12.531Z,5.99
2023-04-03T14:16:48.628Z,5.87
2023-04-03T14:19:29.223Z,5.95
2023-04-03T14:22:04.772Z,5.98
2023-04-03T14:24:36.556Z,5.97
2023-04-03T14:27:27.856Z,6.00
2023-04-03T14:30:00.181Z,5.90
2023-04-03T14:32:31.993Z,5.94
2023-04-03T14:35:04.257Z,5.86
2023-04-03T14:37:36.411Z,5.80
2023-04-03T14:40:10.357Z,5.64
2023-04-03T14:42:42.166Z,5.57
2023-04-03T14:45:14.529Z,5.62
2023-04-03T14:47:54.939Z,5.67
2023-04-03T14:50:31.674Z,5.78
2023-04-03T14:53:03.716Z,5.64
2023-04-03T14:55:36.209Z,5.55
2023-04-03T14:58:13.080Z,5.58
2023-04-03T15:00:45.322Z,5.50
2023-04-03T15:03:19.755Z,5.61
2023-04-03T15:05:51.639Z,5.55
2023-04-03T15:08:30.504Z,5.55
2023-04-03T15:11:03.631Z,5.52
2023-04-03T15:13:35.581Z,5.56
2023-04-03T15:16:20.633Z,5.40
2023-04-03T15:18:52.456Z,5.50
2023-04-03T15:21:24.237Z,5.51
2023-04-03T15:23:55.975Z,5.51
2023-04-03T15:26:27.805Z,5.51
2023-04-03T15:28:59.703Z,5.38
2023-04-03T15:31:32.559Z,5.11
2023-04-03T15:34:04.451Z,5.07
2023-04-03T15:36:36.235Z,5.11
2023-04-03T15:39:10.857Z,5.07
2023-04-03T15:41:43.100Z,4.99
2023-04-03T15:44:14.842Z,5.03
2023-04-03T15:46:52.403Z,5.04
2023-04-03T15:49:24.457Z,5.08
2023-04-03T15:51:56.623Z,4.93
2023-04-03T15:54:30.489Z,4.95
2023-04-03T15:57:02.379Z,4.91
2023-04-03T15:59:34.348Z,4.78
2023-04-03T16:02:08.778Z,4.78
2023-04-03T16:04:41.291Z,4.78
2023-04-03T16:07:13.080Z,4.74
2023-04-03T16:09:44.828Z,4.76
2023-04-03T16:12:16.587Z,4.76
2023-04-03T16:14:48.285Z,4.73
2023-04-03T16:17:20.053Z,4.78
2023-04-03T16:19:53.137Z,4.86
2023-04-03T16:22:26.194Z,4.71
2023-04-03T16:25:00.108Z,4.66
2023-04-03T16:27:32.043Z,4.66
2023-04-03T16:30:04.170Z,4.68
2023-04-03T16:32:37.298Z,4.56
2023-04-03T16:35:11.977Z,4.53
2023-04-03T16:37:43.967Z,4.55
2023-04-03T16:40:15.769Z,4.50
2023-04-03T16:42:50.602Z,4.51
2023-04-03T16:45:22.874Z,4.55
2023-04-03T16:47:54.891Z,4.66
2023-04-03T16:50:26.745Z,4.59
2023-04-03T16:52:58.640Z,4.50
2023-04-03T16:55:30.622Z,4.55
2023-04-03T16:58:02.448Z,4.50
2023-04-03T17:00:35.026Z,4.45
2023-04-03T17:03:06.880Z,4.43
2023-04-03T17:05:38.978Z,4.40
2023-04-03T17:08:10.988Z,4.33
2023-04-03T17:10:42.757Z,4.26
2023-04-03T17:13:14.560Z,4.24
2023-04-03T17:15:46.430Z,4.25
2023-04-03T17:18:18.170Z,4.18
2023-04-03T17:20:49.920Z,4.17
2023-04-03T17:23:21.698Z,4.15
2023-04-03T17:25:55.279Z,4.12
2023-04-03T17:28:29.001Z,4.16
2023-04-03T17:31:02.250Z,4.16
2023-04-03T17:33:34.857Z,4.17
2023-04-03T17:36:07.889Z,4.13
2023-04-03T17:38:39.774Z,4.16
2023-04-03T17:41:11.655Z,4.18
2023-04-03T17:43:43.459Z,4.05
2023-04-03T17:46:17.581Z,4.05
2023-04-03T17:48:49.936Z,4.02
2023-04-03T17:51:25.379Z,3.96
2023-04-03T17:53:57.165Z,3.91
2023-04-03T17:56:28.912Z,3.93
2023-04-03T17:59:02.747Z,3.96
2023-04-03T18:01:36.378Z,3.94
2023-04-03T18:04:08.160Z,3.89
2023-04-03T18:06:39.789Z,3.91
2023-04-03T18:09:18.464Z,3.90
2023-04-03T18:11:51.558Z,3.92
2023-04-03T18:14:26.981Z,3.91
2023-04-03T18:16:58.900Z,3.84
2023-04-03T18:19:34.328Z,3.81
2023-04-03T18:22:14.594Z,3.76
2023-04-03T18:24:46.931Z,3.77
2023-04-03T18:27:21.191Z,3.79
2023-04-03T18:30:02.774Z,3.77
2023-04-03T18:32:34.861Z,3.72
2023-04-03T18:35:09.200Z,3.71
2023-04-03T18:37:41.494Z,3.68
2023-04-03T18:40:15.810Z,3.66
2023-04-03T18:42:47.641Z,3.65
2023-04-03T18:45:23.544Z,3.59
2023-04-03T18:47:56.934Z,3.61
2023-04-03T18:50:29.436Z,3.65
2023-04-03T18:53:01.162Z,3.68
2023-04-03T18:55:32.973Z,3.66
2023-04-03T18:58:04.729Z,3.60
2023-04-03T19:00:38.864Z,3.66
2023-04-03T19:03:12.775Z,3.66
2023-04-03T19:05:44.903Z,3.72
2023-04-03T19:08:16.804Z,3.74
2023-04-03T19:10:48.564Z,3.75
2023-04-03T19:13:20.357Z,3.71
2023-04-03T19:15:52.754Z,3.69
2023-04-03T19:18:26.285Z,3.68
2023-04-03T19:20:59.196Z,3.65
2023-04-03T19:23:30.965Z,3.57
2023-04-03T19:26:08.111Z,3.47
2023-04-03T19:28:41.691Z,3.41
2023-04-03T19:31:16.226Z,3.35
2023-04-03T19:33:48.360Z,3.37
2023-04-03T19:36:20.504Z,3.32
2023-04-03T19:38:53.083Z,3.33
2023-04-03T19:41:27.427Z,3.25
2023-04-03T19:43:59.220Z,3.24
2023-04-03T19:46:31.397Z,3.23
2023-04-03T19:49:04.673Z,3.26
2023-04-03T19:51:37.455Z,3.22
2023-04-03T19:54:09.199Z,3.16
2023-04-03T19:56:43.009Z,3.09
2023-04-03T19:59:16.262Z,3.12
2023-04-03T20:01:48.222Z,3.18
2023-04-03T20:04:20.018Z,3.19
2023-04-03T20:06:53.877Z,3.18
2023-04-03T20:09:28.249Z,3.17
2023-04-03T20:12:01.706Z,3.07
2023-04-03T20:14:33.923Z,3.01
2023-04-03T20:17:05.949Z,3.01
2023-04-03T20:19:39.706Z,2.99
2023-04-03T20:22:11.699Z,2.99
2023-04-03T20:24:43.478Z,2.97
2023-04-03T20:27:16.438Z,3.03
2023-04-03T20:29:48.615Z,3.05
2023-04-03T20:32:21.537Z,3.00
2023-04-03T20:35:03.428Z,2.96
2023-04-03T20:37:36.836Z,2.99
2023-04-03T20:40:09.937Z,2.85
2023-04-03T20:42:41.716Z,2.80
2023-04-03T20:45:14.292Z,2.76
2023-04-03T20:47:46.649Z,2.75
2023-04-03T20:50:20.744Z,2.75
2023-04-03T20:52:52.540Z,2.75
2023-04-03T20:55:24.731Z,2.77
2023-04-03T20:58:01.146Z,2.78
2023-04-03T21:00:33.497Z,2.74
2023-04-03T21:03:06.323Z,2.71
2023-04-03T21:05:38.331Z,2.71
2023-04-03T21:08:47.940Z,2.77
2023-04-03T21:11:57.123Z,2.67
2023-04-03T21:15:06.360Z,2.73
2023-04-03T21:17:38.210Z,2.71
2023-04-03T21:20:09.900Z,2.73
2023-04-03T21:22:44.760Z,2.72
2023-04-03T21:25:16.358Z,2.72
2023-04-03T21:27:48.254Z,2.73
2023-04-03T21:30:19.994Z,2.71
2023-04-03T21:32:51.797Z,2.78
2023-04-03T21:35:23.732Z,2.85
2023-04-03T21:37:55.492Z,2.83
2023-04-03T21:40:27.220Z,2.79
2023-04-03T21:42:58.989Z,2.81
2023-04-03T21:45:30.750Z,2.87
2023-04-03T21:48:03.934Z,2.83
2023-04-03T21:50:37.068Z,2.87
2023-04-03T21:53:08.893Z,2.83
2023-04-03T21:55:40.965Z,2.85
2023-04-03T21:58:15.831Z,2.82
2023-04-03T22:00:47.574Z,2.81
2023-04-03T22:03:23.529Z,2.83
2023-04-03T22:05:59.201Z,2.83
2023-04-03T22:08:31.188Z,2.85
2023-04-03T22:11:14.637Z,2.89
2023-04-03T22:13:46.642Z,2.90
2023-04-03T22:16:18.596Z,2.93
2023-04-03T22:18:53.341Z,2.96
2023-04-03T22:21:25.608Z,2.94
2023-04-03T22:23:57.307Z,2.95
2023-04-03T22:26:29.289Z,2.98
2023-04-03T22:29:01.378Z,3.03
2023-04-03T22:31:33.197Z,3.00
2023-04-03T22:34:05.169Z,2.99
2023-04-03T22:36:36.935Z,2.99
2023-04-03T22:39:10.781Z,3.10
2023-04-03T22:41:45.247Z,3.00
2023-04-03T22:44:17.935Z,2.93
2023-04-03T22:46:49.704Z,2.89
2023-04-03T22:49:21.810Z,2.88
2023-04-03T22:51:53.552Z,2.90
2023-04-03T22:54:25.411Z,2.86
2023-04-03T22:56:57.432Z,2.83
2023-04-03T22:59:29.319Z,2.84
2023-04-03T23:02:01.428Z,2.83
2023-04-03T23:04:33.198Z,2.83
2023-04-03T23:07:05.248Z,2.86
2023-04-03T23:09:37.128Z,2.89
2023-04-03T23:12:09.883Z,2.85
2023-04-03T23:14:41.618Z,2.84
2023-04-03T23:17:13.279Z,2.84
2023-04-03T23:19:44.997Z,2.89
2023-04-03T23:22:16.691Z,2.89
2023-04-03T23:24:48.408Z,2.86
2023-04-03T23:27:20.091Z,2.87
2023-04-03T23:29:51.835Z,2.91
2023-04-03T23:32:23.517Z,2.85
2023-04-03T23:34:55.164Z,2.81
2023-04-03T23:37:27.352Z,2.81
2023-04-03T23:39:59.103Z,2.75
2023-04-03T23:42:31.359Z,2.79
2023-04-03T23:45:03.075Z,2.84
2023-04-03T23:47:36.128Z,2.87
2023-04-03T23:50:08.362Z,2.93
2023-04-03T23:52:40.112Z,2.93
2023-04-03T23:55:11.769Z,2.92
2023-04-03T23:57:43.551Z,2.88
